Time;durP1;ratioP1;P1;durP2;ratioP2;P2;SDS_P1;SDS_P2;PMS_P1;PMS_P2;Temp;Humidity;BMP_temperature;BMP_pressure;BME280_temperature;BME280_humidity;BME280_pressure;Samples;Min_cycle;Max_cycle;Signal;HPM_P1;HPM_P2
2022/05/03 04:01:27;;;;;;;21.30;16.52;;;7.10;99.90;;;;;;5523912;23;20051;-79
2022/05/03 04:03:53;;;;;;;18.13;14.95;;;7.00;99.90;;;;;;4999173;28;20105;-79
2022/05/03 04:06:19;;;;;;;21.60;16.83;;;6.90;99.90;;;;;;4999985;28;20120;-78
2022/05/03 04:08:45;;;;;;;23.88;17.58;;;6.90;99.90;;;;;;5000967;28;20576;-79
2022/05/03 04:11:15;;;;;;;25.00;18.38;;;7.00;99.90;;;;;;5000974;28;20035;-78
2022/05/03 04:13:41;;;;;;;25.80;18.92;;;7.00;99.90;;;;;;4998873;28;20038;-79
2022/05/03 04:16:08;;;;;;;25.02;18.02;;;7.10;99.90;;;;;;4998177;28;20039;-80
2022/05/03 04:18:44;;;;;;;22.55;17.90;;;7.20;99.90;;;;;;4998589;28;20114;-79
2022/05/03 04:21:15;;;;;;;24.33;17.50;;;7.30;99.90;;;;;;4997764;28;20034;-80
2022/05/03 04:23:41;;;;;;;23.38;17.38;;;7.20;99.90;;;;;;4997635;28;20504;-80
2022/05/03 04:26:06;;;;;;;22.50;16.77;;;7.10;99.90;;;;;;4998051;28;20038;-80
2022/05/03 04:28:32;;;;;;;20.65;16.55;;;7.10;99.90;;;;;;5000404;28;20110;-79
2022/05/03 04:30:57;;;;;;;25.50;17.58;;;7.20;99.90;;;;;;5000059;28;20038;-80
2022/05/03 04:33:23;;;;;;;23.02;16.60;;;7.30;99.90;;;;;;4999737;28;20034;-79
2022/05/03 04:35:48;;;;;;;24.08;16.65;;;7.30;99.90;;;;;;4999406;28;20039;-80
2022/05/03 04:38:14;;;;;;;21.67;17.02;;;7.30;99.90;;;;;;4999248;28;20050;-80
2022/05/03 04:40:39;;;;;;;24.05;17.17;;;7.30;99.90;;;;;;4999628;28;20038;-79
2022/05/03 04:43:05;;;;;;;24.27;17.80;;;7.30;99.90;;;;;;5000280;28;20046;-79
2022/05/03 04:45:30;;;;;;;21.95;16.80;;;7.40;99.90;;;;;;4998482;28;20049;-79
2022/05/03 04:47:56;;;;;;;21.60;17.45;;;7.30;99.90;;;;;;5000026;28;20035;-80
2022/05/03 04:50:21;;;;;;;24.83;17.73;;;7.40;99.90;;;;;;4999666;28;20035;-79
2022/05/03 04:52:47;;;;;;;23.42;17.23;;;7.40;99.90;;;;;;4998558;28;20064;-79
2022/05/03 04:55:13;;;;;;;21.55;17.52;;;7.50;99.90;;;;;;4998285;28;20110;-80
2022/05/03 04:57:38;;;;;;;22.20;17.48;;;7.60;99.90;;;;;;4999821;28;20034;-80
2022/05/03 05:00:04;;;;;;;25.25;18.15;;;7.70;99.90;;;;;;4999393;28;20086;-79
2022/05/03 05:02:30;;;;;;;23.08;17.50;;;7.80;99.90;;;;;;4999195;28;20815;-79
2022/05/03 05:04:55;;;;;;;22.65;17.10;;;7.90;99.90;;;;;;4997962;28;20137;-80
2022/05/03 05:07:21;;;;;;;21.33;17.92;;;8.00;99.90;;;;;;4998346;28;20034;-80
2022/05/03 05:12:30;;;;;;;24.00;18.20;;;8.10;99.90;;;;;;5000377;28;20505;-78
2022/05/03 05:14:56;;;;;;;22.48;16.77;;;8.20;99.90;;;;;;4998131;28;20038;-79
2022/05/03 05:17:21;;;;;;;20.88;17.45;;;8.20;99.90;;;;;;5000599;28;20042;-79
2022/05/03 05:19:47;;;;;;;21.65;17.38;;;8.30;99.90;;;;;;4998707;28;20039;-79
2022/05/03 05:22:12;;;;;;;21.85;17.45;;;8.30;99.90;;;;;;4997377;28;20516;-81
2022/05/03 05:24:38;;;;;;;21.60;18.58;;;8.40;99.90;;;;;;4996922;28;20034;-80
2022/05/03 05:27:04;;;;;;;28.15;19.88;;;8.40;99.90;;;;;;4998124;28;20038;-79
2022/05/03 05:29:29;;;;;;;26.88;19.85;;;8.50;99.90;;;;;;4998902;28;20065;-80
2022/05/03 05:31:55;;;;;;;25.40;20.17;;;8.60;99.90;;;;;;4997411;28;20055;-81
2022/05/03 05:34:20;;;;;;;28.20;20.92;;;8.60;99.90;;;;;;4997331;28;20048;-81
2022/05/03 05:36:46;;;;;;;25.55;19.58;;;8.70;99.90;;;;;;5000291;28;20031;-82
2022/05/03 05:39:11;;;;;;;25.90;18.83;;;8.80;99.90;;;;;;4998922;28;20035;-82
2022/05/03 05:41:37;;;;;;;22.33;18.08;;;8.90;99.90;;;;;;4998661;28;20489;-81
2022/05/03 05:44:04;;;;;;;28.27;20.20;;;9.00;99.90;;;;;;5002587;28;20053;-80
2022/05/03 05:46:30;;;;;;;24.95;18.77;;;9.20;99.90;;;;;;5009525;28;20059;-81
2022/05/03 05:48:56;;;;;;;26.70;19.50;;;9.30;99.90;;;;;;5012693;28;20043;-82
2022/05/03 05:51:21;;;;;;;22.38;18.60;;;9.40;99.90;;;;;;5013142;28;20031;-80
2022/05/03 05:53:47;;;;;;;24.90;18.95;;;9.50;99.90;;;;;;5010041;28;20122;-80
2022/05/03 05:56:14;;;;;;;24.50;19.20;;;9.50;99.90;;;;;;4997586;28;20043;-80
2022/05/03 05:58:40;;;;;;;23.70;17.92;;;9.60;99.90;;;;;;4996310;28;20039;-81
2022/05/03 06:01:06;;;;;;;25.65;18.48;;;9.60;99.90;;;;;;4995831;28;20121;-82
2022/05/03 06:03:33;;;;;;;23.13;18.42;;;9.70;99.90;;;;;;4996952;28;20043;-82
2022/05/03 06:05:59;;;;;;;21.67;17.73;;;9.80;99.90;;;;;;4997430;28;20034;-82
2022/05/03 06:08:25;;;;;;;25.08;19.52;;;9.90;99.90;;;;;;4999495;28;20473;-82
2022/05/03 06:10:51;;;;;;;22.33;18.90;;;9.90;99.90;;;;;;5002771;28;20105;-82
2022/05/03 06:13:17;;;;;;;27.48;20.08;;;10.10;99.90;;;;;;5001996;28;20037;-82
2022/05/03 06:15:43;;;;;;;26.20;20.13;;;10.10;99.90;;;;;;5002004;28;20046;-82
2022/05/03 06:18:09;;;;;;;24.48;19.58;;;10.20;99.90;;;;;;5001814;28;20038;-82
2022/05/03 06:20:36;;;;;;;21.60;18.75;;;10.30;99.90;;;;;;5002804;28;20031;-82
2022/05/03 06:23:02;;;;;;;26.33;20.05;;;10.40;99.90;;;;;;5002639;28;20035;-81
2022/05/03 06:25:28;;;;;;;25.52;19.83;;;10.50;99.90;;;;;;5007827;28;20043;-80
2022/05/03 06:27:54;;;;;;;23.02;19.23;;;10.60;99.90;;;;;;5018714;28;20035;-82
2022/05/03 06:30:19;;;;;;;21.98;18.20;;;10.70;99.90;;;;;;5005245;28;20039;-82
2022/05/03 06:32:45;;;;;;;22.42;18.40;;;10.80;99.90;;;;;;4999055;28;20031;-82
2022/05/03 06:35:12;;;;;;;19.77;17.25;;;10.90;99.90;;;;;;4999927;28;20090;-82
2022/05/03 06:37:39;;;;;;;19.15;16.95;;;11.00;99.90;;;;;;5000248;28;20030;-80
2022/05/03 06:40:09;;;;;;;17.75;15.85;;;11.10;99.90;;;;;;4999305;28;20066;-79
2022/05/03 06:42:36;;;;;;;17.48;14.75;;;11.30;99.90;;;;;;4998512;28;20039;-80
2022/05/03 06:45:03;;;;;;;17.30;13.77;;;11.40;99.90;;;;;;4998190;28;20039;-80
2022/05/03 06:47:29;;;;;;;19.35;14.82;;;11.50;99.90;;;;;;4999545;28;20492;-82
2022/05/03 06:49:55;;;;;;;16.42;13.63;;;11.60;99.90;;;;;;4997621;28;20070;-81
2022/05/03 06:52:20;;;;;;;15.18;13.57;;;11.80;99.90;;;;;;4997545;28;20031;-82
2022/05/03 06:54:46;;;;;;;17.75;14.00;;;11.90;99.90;;;;;;4999173;28;20041;-81
2022/05/03 06:57:11;;;;;;;16.13;14.43;;;12.10;99.90;;;;;;4999478;28;20034;-82
2022/05/03 06:59:37;;;;;;;17.77;14.15;;;12.20;99.90;;;;;;4998919;28;20039;-81
2022/05/03 07:02:03;;;;;;;15.25;12.88;;;12.40;99.90;;;;;;5001413;28;20078;-80
2022/05/03 07:04:28;;;;;;;16.60;13.65;;;12.60;99.90;;;;;;5001863;28;20066;-78
2022/05/03 07:06:54;;;;;;;15.30;13.52;;;12.70;99.90;;;;;;5001887;28;20035;-78
2022/05/03 07:09:19;;;;;;;15.73;13.45;;;12.90;99.90;;;;;;4997928;28;20038;-76
2022/05/03 07:11:45;;;;;;;15.07;13.43;;;13.10;99.90;;;;;;4995388;28;20038;-77
2022/05/03 07:14:10;;;;;;;14.30;12.80;;;13.30;99.90;;;;;;4996789;28;20489;-75
2022/05/03 07:16:36;;;;;;;13.95;12.35;;;13.50;99.90;;;;;;4996091;28;20042;-78
2022/05/03 07:22:46;;;;;;;12.95;10.40;;;13.90;99.90;;;;;;4996827;28;20039;-79
2022/05/03 07:24:40;;;;;;;11.55;9.95;;;14.10;99.90;;;;;;4981396;28;20506;-80
2022/05/03 07:27:07;;;;;;;12.65;10.30;;;14.40;99.90;;;;;;4985138;28;20038;-81
2022/05/03 07:29:32;;;;;;;11.68;10.48;;;14.60;99.90;;;;;;4987854;28;20038;-78
2022/05/03 07:31:58;;;;;;;17.27;11.27;;;14.70;99.90;;;;;;4985606;28;20031;-80
2022/05/03 07:34:23;;;;;;;10.90;9.75;;;14.90;99.90;;;;;;4982552;28;20031;-76
2022/05/03 07:36:49;;;;;;;11.82;9.20;;;15.20;99.90;;;;;;4983675;28;20066;-77
2022/05/03 07:39:15;;;;;;;10.80;9.55;;;15.50;99.90;;;;;;4977941;28;20477;-77
2022/05/03 07:41:40;;;;;;;9.73;8.73;;;15.90;99.90;;;;;;4975813;28;20129;-78
2022/05/03 07:44:06;;;;;;;10.50;8.20;;;15.90;99.90;;;;;;4976423;28;20043;-78
2022/05/03 07:46:32;;;;;;;9.65;7.90;;;16.00;99.90;;;;;;4977516;28;20039;-79
2022/05/03 07:48:58;;;;;;;8.70;7.80;;;16.10;99.90;;;;;;4975941;28;20035;-77
2022/05/03 07:51:24;;;;;;;9.90;8.38;;;16.30;99.90;;;;;;4989034;28;20445;-78
2022/05/03 07:53:49;;;;;;;10.77;8.43;;;16.30;99.90;;;;;;4998115;28;20035;-78
2022/05/03 07:56:15;;;;;;;8.27;7.47;;;16.30;99.90;;;;;;5000796;28;20407;-78
2022/05/03 07:58:40;;;;;;;8.90;7.90;;;16.60;99.90;;;;;;5000706;28;20400;-78
2022/05/03 08:01:06;;;;;;;10.38;7.28;;;16.90;99.90;;;;;;5000261;28;20778;-79
2022/05/03 08:03:32;;;;;;;7.47;6.78;;;16.90;99.90;;;;;;4994969;28;20397;-77
2022/05/03 08:05:58;;;;;;;8.05;6.57;;;17.10;99.90;;;;;;4997050;28;20441;-79
2022/05/03 08:08:23;;;;;;;8.40;7.15;;;17.30;99.90;;;;;;4994547;28;20039;-79
2022/05/03 08:10:49;;;;;;;7.60;6.32;;;17.20;99.90;;;;;;4976251;28;20046;-78
2022/05/03 08:13:14;;;;;;;6.63;6.03;;;17.50;99.90;;;;;;4975139;28;20394;-77
2022/05/03 08:15:40;;;;;;;7.00;6.30;;;17.80;99.90;;;;;;4976961;28;20071;-80
2022/05/03 08:18:06;;;;;;;8.02;7.05;;;17.90;99.90;;;;;;4995340;28;20023;-77
2022/05/03 08:20:33;;;;;;;8.38;6.28;;;18.00;99.90;;;;;;4996265;28;20038;-80
2022/05/03 08:22:59;;;;;;;6.95;5.93;;;18.20;99.90;;;;;;4997136;28;20037;-79
2022/05/03 08:25:25;;;;;;;6.93;6.07;;;18.60;99.90;;;;;;4995386;28;20149;-79
2022/05/03 08:27:51;;;;;;;6.28;5.68;;;19.20;99.90;;;;;;4977839;28;20039;-79
2022/05/03 08:30:17;;;;;;;6.72;6.07;;;19.40;98.50;;;;;;4979422;28;20789;-80
2022/05/03 08:32:42;;;;;;;7.38;6.22;;;19.50;98.60;;;;;;4996932;28;20039;-80
2022/05/03 08:35:08;;;;;;;7.00;6.28;;;19.50;98.80;;;;;;5004809;28;20480;-80
2022/05/03 08:43:04;;;;;;;7.50;6.63;;;21.10;95.60;;;;;;4989671;28;20130;-79
2022/05/03 08:45:30;;;;;;;7.07;6.38;;;20.70;95.20;;;;;;4983272;28;20095;-79
2022/05/03 08:47:58;;;;;;;7.47;6.50;;;20.60;95.60;;;;;;4999248;28;20058;-79
2022/05/03 08:50:24;;;;;;;6.13;5.47;;;20.70;95.70;;;;;;5004278;28;20934;-79
2022/05/03 08:52:57;;;;;;;7.45;6.55;;;20.90;94.10;;;;;;5008042;28;20035;-79
2022/05/03 08:55:23;;;;;;;7.15;6.00;;;20.80;94.50;;;;;;4990771;28;20527;-79
2022/05/03 08:57:48;;;;;;;7.80;6.40;;;20.90;92.70;;;;;;5006064;28;21574;-80
2022/05/03 09:00:16;;;;;;;6.63;6.00;;;21.10;92.70;;;;;;4986748;28;20503;-79
2022/05/03 09:02:55;;;;;;;5.63;5.05;;;20.90;93.10;;;;;;4985606;28;20035;-80
2022/05/03 09:05:22;;;;;;;6.45;5.75;;;21.10;92.40;;;;;;4981910;28;20039;-79
2022/05/03 09:07:55;;;;;;;6.20;5.60;;;21.20;92.10;;;;;;4994182;28;20035;-80
2022/05/03 09:10:22;;;;;;;5.65;4.90;;;20.80;92.00;;;;;;4980723;28;20051;-80
2022/05/03 09:12:49;;;;;;;5.95;5.38;;;21.50;91.50;;;;;;4984553;28;20090;-80
2022/05/03 09:15:27;;;;;;;6.10;5.50;;;21.60;91.70;;;;;;4985923;28;20042;-81
2022/05/03 09:17:52;;;;;;;8.23;5.03;;;22.00;91.10;;;;;;4984462;28;20130;-82
2022/05/03 09:26:18;;;;;;;8.25;4.35;;;21.70;90.50;;;;;;5000609;28;20042;-79
2022/05/03 09:28:58;;;;;;;6.85;4.88;;;22.00;88.00;;;;;;4996657;28;20137;-81
2022/05/03 09:31:42;;;;;;;7.55;4.75;;;22.30;85.70;;;;;;4995127;28;20062;-79
2022/05/03 09:34:22;;;;;;;6.22;4.18;;;22.90;90.80;;;;;;4997427;28;20027;-80
2022/05/03 09:36:51;;;;;;;4.18;3.78;;;22.50;81.20;;;;;;4995851;28;20027;-78
2022/05/03 09:39:33;;;;;;;4.60;4.13;;;22.00;81.50;;;;;;4995317;28;20027;-79
2022/05/03 09:42:10;;;;;;;4.93;4.10;;;21.90;83.90;;;;;;4996930;28;20042;-81
2022/05/03 09:44:37;;;;;;;5.13;4.20;;;22.00;81.30;;;;;;4979672;28;20488;-79
2022/05/03 09:47:08;;;;;;;4.63;4.18;;;22.20;84.40;;;;;;4983119;28;20031;-80
2022/05/03 09:49:36;;;;;;;5.85;4.45;;;22.60;83.00;;;;;;4986519;28;20094;-79
2022/05/03 09:52:03;;;;;;;7.45;4.35;;;22.90;84.70;;;;;;4983642;28;20035;-80
2022/05/03 09:54:58;;;;;;;6.20;4.57;;;23.20;83.80;;;;;;4998369;28;20054;-81
2022/05/03 09:57:25;;;;;;;5.93;4.13;;;23.20;83.30;;;;;;4984871;28;20028;-81
2022/05/03 09:59:55;;;;;;;5.57;4.68;;;22.90;81.90;;;;;;4982562;28;20067;-80
2022/05/03 10:02:22;;;;;;;4.95;4.45;;;22.70;81.80;;;;;;4984007;28;20048;-81
2022/05/03 10:04:50;;;;;;;4.88;4.40;;;22.50;84.10;;;;;;4982045;28;20050;-78
2022/05/03 10:07:17;;;;;;;6.32;4.47;;;22.60;84.10;;;;;;4979845;28;20027;-78
2022/05/03 10:09:43;;;;;;;4.82;4.32;;;22.60;81.80;;;;;;4978973;28;20035;-78
2022/05/03 10:12:13;;;;;;;4.93;4.45;;;22.60;82.50;;;;;;4976759;28;20114;-79
2022/05/03 10:14:41;;;;;;;5.53;4.03;;;22.50;84.20;;;;;;4981079;28;20039;-80
2022/05/03 10:20:40;;;;;;;6.18;4.53;;;22.30;83.40;;;;;;4980636;28;20035;-81
2022/05/03 10:23:24;;;;;;;5.25;4.53;;;22.00;85.40;;;;;;4999448;28;20046;-81
2022/05/03 10:25:51;;;;;;;4.75;4.15;;;22.10;82.40;;;;;;4999348;28;20038;-81
2022/05/03 10:28:16;;;;;;;7.25;4.47;;;22.10;82.70;;;;;;5000338;28;20110;-80
2022/05/03 10:31:04;;;;;;;5.75;4.40;;;22.30;85.70;;;;;;5000060;28;20495;-84
2022/05/03 10:33:29;;;;;;;5.10;4.07;;;22.20;85.50;;;;;;5000324;28;20038;-83
2022/05/03 10:35:56;;;;;;;4.28;3.88;;;22.30;81.40;;;;;;5000483;28;20035;-81
2022/05/03 10:39:01;;;;;;;5.20;4.30;;;22.40;82.70;;;;;;5002972;28;20051;-82
2022/05/03 10:41:29;;;;;;;6.43;4.30;;;22.60;80.80;;;;;;4980275;28;20420;-82
2022/05/03 10:43:55;;;;;;;3.97;3.53;;;22.40;81.30;;;;;;5003070;28;20031;-82
2022/05/03 10:46:22;;;;;;;4.18;3.78;;;22.50;81.80;;;;;;5002069;28;20042;-81
2022/05/03 10:49:23;;;;;;;4.35;3.80;;;22.80;81.00;;;;;;5002028;28;20038;-82
2022/05/03 10:51:50;;;;;;;4.07;3.47;;;22.70;83.20;;;;;;4945129;28;20076;-82
2022/05/03 10:54:16;;;;;;;4.15;3.75;;;22.90;77.80;;;;;;4996027;28;20081;-81
2022/05/03 10:57:00;;;;;;;4.53;3.47;;;23.10;79.90;;;;;;5000584;28;20078;-81
2022/05/03 10:59:48;;;;;;;5.35;3.95;;;23.20;78.60;;;;;;4999475;28;20415;-80
2022/05/03 11:02:14;;;;;;;5.03;4.53;;;23.40;78.00;;;;;;5001259;28;20053;-81
2022/05/03 11:05:16;;;;;;;5.28;3.92;;;23.20;76.00;;;;;;5001505;28;20047;-80
2022/05/03 11:08:01;;;;;;;5.30;4.22;;;23.30;78.30;;;;;;4998257;28;20138;-79
2022/05/03 11:10:41;;;;;;;4.43;4.03;;;23.40;77.50;;;;;;4999984;28;20527;-82
2022/05/03 11:13:40;;;;;;;5.35;4.85;;;23.20;77.30;;;;;;4999473;28;20569;-83
2022/05/03 11:16:25;;;;;;;6.22;4.45;;;23.30;80.50;;;;;;4994723;28;20527;-81
2022/05/03 11:18:53;;;;;;;6.32;4.68;;;22.90;77.60;;;;;;4999297;28;20042;-81
2022/05/03 11:21:19;;;;;;;6.10;3.97;;;22.60;82.30;;;;;;4997850;28;20037;-77
2022/05/03 11:23:55;;;;;;;4.70;4.03;;;22.70;77.70;;;;;;4998500;28;20065;-78
2022/05/03 11:26:23;;;;;;;5.50;4.13;;;22.30;78.20;;;;;;5000837;28;20051;-78
2022/05/03 11:28:56;;;;;;;5.63;3.83;;;22.50;78.20;;;;;;5000729;28;20488;-79
2022/05/03 11:31:23;;;;;;;4.25;3.85;;;23.10;75.30;;;;;;5001180;28;20046;-79
2022/05/03 11:33:54;;;;;;;4.80;4.15;;;23.10;74.60;;;;;;5002327;28;20035;-79
2022/05/03 11:36:20;;;;;;;9.60;7.68;;;23.30;75.70;;;;;;5002974;28;20035;-79
2022/05/03 11:38:52;;;;;;;5.60;4.43;;;23.90;80.80;;;;;;5002781;28;20035;-79
2022/05/03 11:41:22;;;;;;;5.65;4.78;;;24.10;72.80;;;;;;5010707;28;20045;-79
2022/05/03 11:43:47;;;;;;;3.80;3.50;;;24.10;74.70;;;;;;5005784;28;20030;-81
2022/05/03 11:46:18;;;;;;;4.32;3.92;;;24.90;71.30;;;;;;5001410;28;20076;-82
2022/05/03 11:48:44;;;;;;;8.13;4.13;;;25.40;70.90;;;;;;5000632;28;20484;-81
2022/05/03 11:56:44;;;;;;;5.50;3.80;;;25.70;72.00;;;;;;5001871;28;20038;-80
2022/05/03 11:59:09;;;;;;;5.13;4.22;;;25.60;72.50;;;;;;5000106;28;20073;-81
2022/05/03 12:01:35;;;;;;;4.15;3.80;;;25.60;70.70;;;;;;4999320;28;20504;-81
2022/05/03 12:04:03;;;;;;;5.45;3.97;;;25.40;71.70;;;;;;5000106;28;20174;-80
2022/05/03 12:06:44;;;;;;;4.05;3.67;;;24.80;71.40;;;;;;5010436;28;20127;-81
2022/05/03 12:09:11;;;;;;;4.20;3.75;;;24.50;72.80;;;;;;5013499;28;20137;-80
2022/05/03 12:12:42;;;;;;;4.05;3.72;;;24.20;73.30;;;;;;5014462;28;20031;-82
2022/05/03 12:14:36;;;;;;;4.22;3.83;;;24.30;71.70;;;;;;5012573;28;20062;-78
2022/05/03 12:17:01;;;;;;;4.55;3.80;;;23.90;74.10;;;;;;4998062;28;20457;-80
2022/05/03 12:19:35;;;;;;;6.55;4.00;;;24.00;72.50;;;;;;4996730;28;20034;-79
2022/05/03 12:22:10;;;;;;;4.05;3.65;;;23.70;71.70;;;;;;4997017;28;20527;-81
2022/05/03 12:24:38;;;;;;;3.70;3.25;;;23.80;77.80;;;;;;4996129;28;20082;-80
2022/05/03 12:27:16;;;;;;;6.90;4.18;;;23.70;70.90;;;;;;4996890;28;20034;-80
2022/05/03 12:29:46;;;;;;;4.47;3.22;;;23.40;75.00;;;;;;4996625;28;20530;-78
2022/05/03 12:32:17;;;;;;;4.32;3.42;;;23.30;72.60;;;;;;4996733;28;20589;-79
2022/05/03 12:35:27;;;;;;;3.72;3.40;;;22.80;73.00;;;;;;4996869;28;20042;-78
2022/05/03 12:37:53;;;;;;;4.35;3.53;;;22.30;72.00;;;;;;4977607;28;20759;-79
2022/05/03 12:40:26;;;;;;;6.05;3.90;;;22.30;81.10;;;;;;4981699;28;20049;-81
2022/05/03 12:42:52;;;;;;;4.75;3.60;;;22.20;76.10;;;;;;4977194;28;20430;-83
2022/05/03 12:45:19;;;;;;;5.45;3.65;;;22.10;79.90;;;;;;4977425;28;20053;-79
2022/05/03 12:47:49;;;;;;;4.82;4.10;;;22.00;76.70;;;;;;4992700;28;20131;-81
2022/05/03 12:50:16;;;;;;;4.60;4.13;;;21.60;80.70;;;;;;4995430;28;20571;-82
2022/05/03 12:52:42;;;;;;;5.20;3.85;;;21.30;82.30;;;;;;4996004;28;20050;-82
2022/05/03 12:55:08;;;;;;;4.82;4.03;;;21.00;84.70;;;;;;4997134;28;20073;-82
2022/05/03 13:00:18;;;;;;;5.97;4.28;;;20.70;85.80;;;;;;4996526;28;20039;-82
2022/05/03 13:02:43;;;;;;;6.13;4.32;;;20.60;86.80;;;;;;4996595;28;20480;-80
2022/05/03 13:05:09;;;;;;;6.30;4.47;;;20.40;88.90;;;;;;4976969;28;20043;-85
2022/05/03 13:07:34;;;;;;;5.97;4.50;;;20.30;89.60;;;;;;4979026;28;20039;-83
2022/05/03 13:10:00;;;;;;;5.05;4.18;;;20.40;90.00;;;;;;4976217;28;20035;-82
2022/05/03 13:12:25;;;;;;;6.43;4.90;;;20.40;90.40;;;;;;4977609;28;20031;-80
2022/05/03 13:14:51;;;;;;;5.20;4.53;;;20.30;89.80;;;;;;4977452;28;20485;-80
2022/05/03 13:17:16;;;;;;;5.30;4.80;;;20.30;90.80;;;;;;4997244;28;20647;-80
2022/05/03 13:19:42;;;;;;;4.97;4.10;;;20.20;89.40;;;;;;4993565;28;21186;-80
2022/05/03 13:22:07;;;;;;;5.13;4.63;;;20.30;89.70;;;;;;5010209;28;20089;-80
2022/05/03 13:24:33;;;;;;;4.75;4.10;;;20.30;90.80;;;;;;5006325;28;20047;-80
2022/05/03 13:26:59;;;;;;;7.30;4.43;;;20.10;90.50;;;;;;4996752;28;20058;-80
2022/05/03 13:29:25;;;;;;;5.47;4.22;;;20.20;90.40;;;;;;4980321;28;20050;-80
2022/05/03 13:31:51;;;;;;;5.80;4.40;;;20.40;91.40;;;;;;4981187;28;20121;-80
2022/05/03 13:34:17;;;;;;;5.88;4.15;;;20.40;92.40;;;;;;4978021;28;20134;-81
2022/05/03 13:42:11;;;;;;;4.05;3.65;;;21.50;90.60;;;;;;5001580;28;20503;-80
2022/05/03 13:44:39;;;;;;;6.65;4.07;;;22.40;89.80;;;;;;5000869;28;20173;-82
2022/05/03 13:47:08;;;;;;;4.82;3.70;;;23.40;90.90;;;;;;4998191;28;20035;-80
2022/05/03 13:49:34;;;;;;;3.90;3.45;;;23.70;86.40;;;;;;4999134;28;20378;-80
2022/05/03 13:52:00;;;;;;;4.47;3.60;;;24.10;82.40;;;;;;4997801;28;20027;-79
2022/05/03 13:54:26;;;;;;;4.68;3.30;;;24.40;81.30;;;;;;4997854;28;20039;-81
2022/05/03 13:56:51;;;;;;;6.05;3.13;;;24.20;82.70;;;;;;4999063;28;20027;-80
2022/05/03 13:59:17;;;;;;;3.70;2.50;;;23.80;77.80;;;;;;4997629;28;20062;-82
2022/05/03 14:01:46;;;;;;;3.90;2.67;;;23.50;76.90;;;;;;4999002;28;20039;-81
2022/05/03 14:04:11;;;;;;;3.70;2.70;;;23.50;78.00;;;;;;5000964;28;20504;-80
2022/05/03 14:06:37;;;;;;;4.45;2.85;;;23.00;78.30;;;;;;4998905;28;20046;-81
2022/05/03 14:09:03;;;;;;;4.50;2.70;;;22.80;76.10;;;;;;4999736;28;20559;-81
2022/05/03 14:11:31;;;;;;;4.65;2.70;;;23.20;77.70;;;;;;4997897;28;20607;-79
2022/05/03 14:13:58;;;;;;;3.67;2.65;;;23.80;77.90;;;;;;4995804;28;20039;-78
2022/05/03 14:16:23;;;;;;;3.97;2.85;;;24.30;77.70;;;;;;4995043;28;20532;-81
2022/05/03 14:18:49;;;;;;;5.93;2.95;;;25.00;72.50;;;;;;5003792;28;20043;-79
2022/05/03 14:21:14;;;;;;;4.38;2.42;;;24.90;75.40;;;;;;5006151;28;20042;-81
2022/05/03 14:23:40;;;;;;;4.53;2.42;;;24.30;69.90;;;;;;5011177;28;20042;-82
2022/05/03 14:26:09;;;;;;;2.80;2.53;;;24.70;73.00;;;;;;5005999;28;20039;-81
2022/05/03 14:28:37;;;;;;;5.50;2.72;;;25.10;70.40;;;;;;4991512;28;20070;-81
2022/05/03 14:31:03;;;;;;;4.20;2.70;;;25.10;68.50;;;;;;5004988;28;20034;-80
2022/05/03 14:33:29;;;;;;;4.82;2.42;;;24.90;67.70;;;;;;5013859;28;20122;-80
2022/05/03 14:35:55;;;;;;;4.15;2.60;;;24.70;70.30;;;;;;5002747;28;20126;-81
2022/05/03 14:38:21;;;;;;;3.35;2.33;;;24.60;70.00;;;;;;5011583;28;20030;-80
2022/05/03 14:40:46;;;;;;;4.80;2.60;;;24.40;72.10;;;;;;4984915;28;20544;-81
2022/05/03 14:43:12;;;;;;;3.60;2.63;;;23.90;73.90;;;;;;4986563;28;20027;-79
2022/05/03 14:45:37;;;;;;;3.80;2.55;;;23.90;73.80;;;;;;4979969;28;20122;-80
2022/05/03 14:48:06;;;;;;;4.50;2.97;;;23.60;73.90;;;;;;4977165;28;20039;-79
2022/05/03 14:50:32;;;;;;;3.35;2.88;;;23.40;75.10;;;;;;4984321;28;20039;-79
2022/05/03 14:52:58;;;;;;;3.65;2.80;;;23.30;76.40;;;;;;4987837;28;20039;-79
2022/05/03 14:55:24;;;;;;;4.28;2.45;;;23.30;73.40;;;;;;4985252;28;20075;-78
2022/05/03 15:03:18;;;;;;;4.25;2.58;;;23.30;71.70;;;;;;4979694;28;20497;-78
2022/05/03 15:05:43;;;;;;;6.25;2.78;;;23.50;72.40;;;;;;4980662;28;20047;-79
2022/05/03 15:08:10;;;;;;;4.97;2.50;;;24.00;69.60;;;;;;4999602;28;20094;-76
2022/05/03 15:10:37;;;;;;;3.45;2.28;;;23.90;67.20;;;;;;4998904;28;20122;-79
2022/05/03 15:13:07;;;;;;;3.35;2.63;;;23.90;67.60;;;;;;4991057;28;20031;-77
2022/05/03 15:15:34;;;;;;;2.88;2.05;;;23.50;67.40;;;;;;4977861;28;20023;-81
2022/05/03 15:18:01;;;;;;;2.58;2.30;;;23.40;68.90;;;;;;4999162;28;20526;-80
2022/05/03 15:20:30;;;;;;;2.40;2.20;;;23.90;69.20;;;;;;5000301;28;20031;-79
2022/05/03 15:25:44;;;;;;;3.17;2.20;;;26.20;61.70;;;;;;4995488;28;20043;-77
2022/05/03 15:28:10;;;;;;;2.10;1.88;;;26.80;58.50;;;;;;4998564;28;20031;-75
2022/05/03 15:30:36;;;;;;;2.72;1.98;;;26.20;60.10;;;;;;4983560;28;20126;-76
2022/05/03 15:33:02;;;;;;;3.30;1.90;;;25.60;61.20;;;;;;4978337;28;20118;-78
2022/05/03 15:35:30;;;;;;;2.25;1.70;;;26.40;61.90;;;;;;4981166;28;20053;-77
2022/05/03 15:38:00;;;;;;;2.63;1.70;;;27.90;56.20;;;;;;4997757;28;20037;-76
2022/05/03 15:40:27;;;;;;;3.92;1.60;;;28.70;54.70;;;;;;4987507;28;20054;-75
2022/05/03 15:42:53;;;;;;;4.55;1.88;;;28.40;55.00;;;;;;4975982;28;20046;-77
2022/05/03 15:45:19;;;;;;;2.00;1.48;;;29.00;54.20;;;;;;4978987;28;20533;-76
2022/05/03 15:47:45;;;;;;;2.88;1.80;;;29.90;52.20;;;;;;4996842;28;20034;-76
2022/05/03 15:50:14;;;;;;;3.85;1.77;;;30.70;51.60;;;;;;4997147;28;20493;-78
2022/05/03 15:52:43;;;;;;;3.55;1.67;;;31.60;49.30;;;;;;4996423;28;20117;-78
2022/05/03 15:55:10;;;;;;;3.17;1.80;;;31.10;51.20;;;;;;4996309;28;20485;-77
2022/05/03 15:57:38;;;;;;;3.45;1.73;;;31.30;48.80;;;;;;4978432;28;20039;-77
2022/05/03 16:00:10;;;;;;;2.13;1.38;;;31.40;48.00;;;;;;4995567;28;20109;-82
2022/05/03 16:02:36;;;;;;;2.28;1.30;;;31.70;47.80;;;;;;4997177;28;20468;-76
2022/05/03 16:05:01;;;;;;;3.13;1.85;;;32.20;45.90;;;;;;4995489;28;20054;-77
2022/05/03 16:07:27;;;;;;;3.30;1.30;;;32.60;45.50;;;;;;4993905;28;20035;-79
2022/05/03 16:09:52;;;;;;;1.50;1.40;;;32.80;45.30;;;;;;4997356;28;20058;-78
2022/05/03 16:12:18;;;;;;;3.17;1.40;;;33.00;45.30;;;;;;4997467;28;20082;-77
2022/05/03 16:14:44;;;;;;;2.13;1.38;;;33.70;48.20;;;;;;5007535;23;20047;-80
2022/05/03 16:17:09;;;;;;;2.05;1.42;;;34.70;42.60;;;;;;4979639;28;20487;-79
2022/05/03 16:19:37;;;;;;;3.13;1.33;;;34.00;41.70;;;;;;4979204;28;20040;-80
2022/05/03 16:22:04;;;;;;;2.20;1.40;;;32.80;42.70;;;;;;4977088;28;20110;-80
2022/05/03 16:24:30;;;;;;;2.38;1.42;;;32.40;43.30;;;;;;4975521;28;20127;-80
2022/05/03 16:26:56;;;;;;;2.17;1.52;;;32.00;45.10;;;;;;4977153;28;20027;-80
2022/05/03 16:29:22;;;;;;;1.50;1.35;;;31.70;42.30;;;;;;4980340;28;20477;-80
2022/05/03 16:31:48;;;;;;;2.22;1.45;;;32.10;46.60;;;;;;4980927;28;20110;-80
2022/05/03 16:34:13;;;;;;;2.15;1.50;;;32.60;41.60;;;;;;4979603;28;20039;-80
2022/05/03 16:42:15;;;;;;;1.70;1.38;;;27.80;53.50;;;;;;4986694;28;20923;-80
2022/05/03 16:44:42;;;;;;;3.53;1.30;;;25.90;54.10;;;;;;4983935;28;20047;-81
2022/05/03 16:47:10;;;;;;;3.38;1.60;;;24.70;55.80;;;;;;4979201;28;20031;-81
2022/05/03 16:49:39;;;;;;;2.83;1.50;;;24.00;55.20;;;;;;4976093;28;20443;-83
2022/05/03 16:52:11;;;;;;;3.53;1.60;;;23.60;60.90;;;;;;4976714;28;20032;-83
2022/05/03 16:54:37;;;;;;;3.72;1.70;;;23.50;62.00;;;;;;4978106;28;20543;-83
2022/05/03 16:57:03;;;;;;;3.38;1.88;;;23.40;58.30;;;;;;4976761;28;20035;-83
2022/05/03 16:59:29;;;;;;;3.42;1.30;;;23.10;60.10;;;;;;4977392;28;20080;-82
2022/05/03 17:01:55;;;;;;;3.72;1.90;;;22.90;57.80;;;;;;4976466;28;20094;-83
2022/05/03 17:04:20;;;;;;;4.63;2.20;;;22.70;60.50;;;;;;4977413;28;20126;-82
2022/05/03 17:06:46;;;;;;;2.63;1.50;;;22.70;63.60;;;;;;4977802;28;20043;-82
2022/05/03 17:09:13;;;;;;;3.25;2.00;;;22.50;60.20;;;;;;4979828;28;20071;-84
2022/05/03 17:11:40;;;;;;;2.95;1.73;;;22.30;63.00;;;;;;4976170;28;20066;-83
2022/05/03 17:14:07;;;;;;;2.10;1.58;;;21.90;65.50;;;;;;4974666;28;20043;-82
2022/05/03 17:16:33;;;;;;;2.20;1.70;;;21.80;63.80;;;;;;4984178;28;20039;-84
2022/05/03 17:18:59;;;;;;;1.90;1.63;;;21.60;64.00;;;;;;4986470;28;20939;-82
2022/05/03 17:21:25;;;;;;;2.30;1.70;;;21.30;63.70;;;;;;4981760;28;20055;-83
2022/05/03 17:23:52;;;;;;;2.25;1.50;;;21.00;64.30;;;;;;4979709;28;20074;-81
2022/05/03 17:26:23;;;;;;;5.97;1.77;;;20.70;65.70;;;;;;4977878;28;20603;-83
2022/05/03 17:28:52;;;;;;;4.20;1.90;;;20.60;66.60;;;;;;4977914;28;20401;-84
2022/05/03 17:31:21;;;;;;;3.22;1.98;;;20.40;71.70;;;;;;4983457;28;20099;-82
2022/05/03 17:33:50;;;;;;;2.92;2.05;;;20.10;71.00;;;;;;4990324;28;20460;-81
2022/05/03 17:36:17;;;;;;;3.35;2.10;;;19.80;72.80;;;;;;4989977;28;20035;-81